createdAt,value
2019-05-22T00:00:40.972Z,94.70
2019-05-22T00:03:20.108Z,94.80
2019-05-22T00:05:50.254Z,94.90
2019-05-22T00:08:19.569Z,94.80
2019-05-22T00:10:49.782Z,94.80
2019-05-22T00:13:20.165Z,94.80
2019-05-22T00:15:50.289Z,94.70
2019-05-22T00:18:19.626Z,94.50
2019-05-22T00:20:49.752Z,95.30
2019-05-22T00:23:18.741Z,95.20
2019-05-22T00:25:47.564Z,95.00
2019-05-22T00:28:17.930Z,94.80
2019-05-22T00:31:05.912Z,95.00
2019-05-22T00:33:36.468Z,94.90
2019-05-22T00:36:06.747Z,95.00
2019-05-22T00:38:36.876Z,94.70
2019-05-22T00:41:09.770Z,94.80
2019-05-22T00:43:39.789Z,94.60
2019-05-22T00:46:09.933Z,95.20
2019-05-22T00:48:40.734Z,95.00
2019-05-22T00:51:11.156Z,94.70
2019-05-22T00:53:50.376Z,95.00
2019-05-22T00:56:32.321Z,94.90
2019-05-22T00:59:08.269Z,94.90
2019-05-22T01:01:39.947Z,94.80
2019-05-22T01:04:10.075Z,94.90
2019-05-22T01:06:38.928Z,94.70
2019-05-22T01:09:10.010Z,95.00
2019-05-22T01:11:39.616Z,94.80
2019-05-22T01:14:09.502Z,94.70
2019-05-22T01:16:39.770Z,94.80
2019-05-22T01:19:08.225Z,94.70
2019-05-22T01:21:38.364Z,94.70
2019-05-22T01:24:07.894Z,94.70
2019-05-22T01:26:36.665Z,94.70
2019-05-22T01:29:06.125Z,94.60
2019-05-22T01:31:42.073Z,94.50
2019-05-22T01:34:15.371Z,94.80
2019-05-22T01:36:45.658Z,94.60
2019-05-22T01:39:18.381Z,94.80
2019-05-22T01:41:48.339Z,94.40
2019-05-22T01:44:17.849Z,94.70
2019-05-22T01:46:46.333Z,94.80
2019-05-22T01:49:18.917Z,94.40
2019-05-22T01:51:47.441Z,94.90
2019-05-22T01:54:16.141Z,94.80
2019-05-22T01:56:46.071Z,94.90
2019-05-22T01:59:15.505Z,95.10
2019-05-22T02:01:45.324Z,95.00
2019-05-22T02:04:14.899Z,95.00
2019-05-22T02:06:45.168Z,94.80
2019-05-22T02:09:33.365Z,94.90
2019-05-22T02:12:09.273Z,95.10
2019-05-22T02:14:38.683Z,95.00
2019-05-22T02:17:07.898Z,94.90
2019-05-22T02:19:36.373Z,95.00
2019-05-22T02:22:06.459Z,95.00
2019-05-22T02:24:36.522Z,94.80
2019-05-22T02:27:06.233Z,95.10
2019-05-22T02:29:35.954Z,95.30
2019-05-22T02:32:06.730Z,95.20
2019-05-22T02:34:35.892Z,95.30
2019-05-22T02:37:05.972Z,95.20
2019-05-22T02:39:36.064Z,95.30
2019-05-22T02:42:15.502Z,95.40
2019-05-22T02:44:45.846Z,95.00
2019-05-22T02:47:19.899Z,95.00
2019-05-22T02:49:46.138Z,95.00
2019-05-22T02:52:15.720Z,95.00
2019-05-22T02:54:44.285Z,95.20
2019-05-22T02:57:13.400Z,95.10
2019-05-22T02:59:42.465Z,95.10
2019-05-22T03:02:12.855Z,95.10
2019-05-22T03:04:56.328Z,95.60
2019-05-22T03:07:26.004Z,96.00
2019-05-22T03:09:54.950Z,95.80
2019-05-22T03:12:24.464Z,95.90
2019-05-22T03:14:53.030Z,95.80
2019-05-22T03:17:28.073Z,95.80
2019-05-22T03:19:58.182Z,95.80
2019-05-22T03:22:28.701Z,95.80
2019-05-22T03:25:00.327Z,96.30
2019-05-22T03:27:38.976Z,96.20
2019-05-22T03:30:11.129Z,96.60
2019-05-22T03:32:43.647Z,96.40
2019-05-22T03:35:10.537Z,96.50
2019-05-22T03:37:39.857Z,96.60
2019-05-22T03:40:09.223Z,96.60
2019-05-22T03:42:37.991Z,96.70
2019-05-22T03:45:10.553Z,96.80
2019-05-22T03:47:40.635Z,96.80
2019-05-22T03:50:09.656Z,96.80
2019-05-22T03:52:38.553Z,96.30
2019-05-22T03:55:07.841Z,96.80
2019-05-22T03:57:37.093Z,96.30
2019-05-22T04:00:08.860Z,96.00
2019-05-22T04:02:37.374Z,96.50
2019-05-22T04:05:09.052Z,96.60
2019-05-22T04:07:39.432Z,96.20
2019-05-22T04:10:10.415Z,96.10
2019-05-22T04:12:39.129Z,96.30
2019-05-22T04:15:09.388Z,96.30
2019-05-22T04:17:39.997Z,96.00
2019-05-22T04:20:09.261Z,96.10
2019-05-22T04:22:37.824Z,96.40
2019-05-22T04:25:07.910Z,96.50
2019-05-22T04:27:36.464Z,96.30
2019-05-22T04:30:09.333Z,96.60
2019-05-22T04:32:42.260Z,96.60
2019-05-22T04:35:12.329Z,96.50
2019-05-22T04:37:41.888Z,96.10
2019-05-22T04:40:25.871Z,96.40
2019-05-22T04:42:57.962Z,96.60
2019-05-22T04:45:27.182Z,96.10
2019-05-22T04:47:58.647Z,96.10
2019-05-22T04:50:28.949Z,95.90
2019-05-22T04:52:57.538Z,96.10
2019-05-22T04:55:27.091Z,96.10
2019-05-22T04:57:55.660Z,96.20
2019-05-22T05:00:24.107Z,96.10
2019-05-22T05:02:52.948Z,95.60
2019-05-22T05:05:23.165Z,95.30
2019-05-22T05:07:52.298Z,95.80
2019-05-22T05:10:21.110Z,95.90
2019-05-22T05:12:49.676Z,95.60
2019-05-22T05:15:18.490Z,95.40
2019-05-22T05:17:47.022Z,95.50
2019-05-22T05:20:22.637Z,95.60
2019-05-22T05:22:46.363Z,95.60
2019-05-22T05:25:16.594Z,95.30
2019-05-22T05:27:45.373Z,95.50
2019-05-22T05:30:14.857Z,95.50
2019-05-22T05:32:43.697Z,95.50
2019-05-22T05:35:12.920Z,95.30
2019-05-22T05:37:41.633Z,95.10
2019-05-22T05:40:31.367Z,95.20
2019-05-22T05:43:00.161Z,95.30
2019-05-22T05:45:29.285Z,95.30
2019-05-22T05:47:58.328Z,94.90
2019-05-22T05:50:39.008Z,94.80
2019-05-22T05:53:00.077Z,94.90
2019-05-22T05:55:33.524Z,94.90
2019-05-22T05:58:21.444Z,94.80
2019-05-22T06:00:54.326Z,94.70
2019-05-22T06:03:39.686Z,95.00
2019-05-22T06:06:28.736Z,95.10
2019-05-22T06:09:00.677Z,95.00
2019-05-22T06:11:39.394Z,95.10
2019-05-22T06:14:08.825Z,95.10
2019-05-22T06:16:54.524Z,95.20
2019-05-22T06:19:23.974Z,95.00
2019-05-22T06:21:52.700Z,95.10
2019-05-22T06:24:38.420Z,94.90
2019-05-22T06:27:11.823Z,94.90
2019-05-22T06:29:57.698Z,94.60
2019-05-22T06:32:36.695Z,94.50
2019-05-22T06:35:07.793Z,94.70
2019-05-22T06:37:45.453Z,94.50
2019-05-22T06:40:14.872Z,94.30
2019-05-22T06:42:45.265Z,94.30
2019-05-22T06:45:13.770Z,94.00
2019-05-22T06:47:42.573Z,93.80
2019-05-22T06:50:11.179Z,93.50
2019-05-22T06:52:39.749Z,93.60
2019-05-22T06:55:08.318Z,93.40
2019-05-22T06:57:36.868Z,93.50
2019-05-22T07:00:14.231Z,93.10
2019-05-22T07:02:38.692Z,93.60
2019-05-22T07:05:07.651Z,92.90
2019-05-22T07:07:36.097Z,92.50
2019-05-22T07:10:06.661Z,92.50
2019-05-22T07:12:36.321Z,91.90
2019-05-22T07:15:08.705Z,91.70
2019-05-22T07:17:37.715Z,92.40
2019-05-22T07:20:06.745Z,91.90
2019-05-22T07:22:35.564Z,91.90
2019-05-22T07:25:06.216Z,91.50
2019-05-22T07:27:34.712Z,91.10
2019-05-22T07:30:04.429Z,91.30
2019-05-22T07:32:32.986Z,91.30
2019-05-22T07:35:01.550Z,91.10
2019-05-22T07:37:30.307Z,90.80
2019-05-22T07:39:58.758Z,90.90
2019-05-22T07:42:27.250Z,90.30
2019-05-22T07:44:55.699Z,89.50
2019-05-22T07:47:24.588Z,89.10
2019-05-22T07:49:53.410Z,90.00
2019-05-22T07:52:22.140Z,89.90
2019-05-22T07:54:50.929Z,90.00
2019-05-22T07:57:21.382Z,90.20
2019-05-22T07:59:49.826Z,90.20
2019-05-22T08:02:18.950Z,90.20
2019-05-22T08:04:47.623Z,89.00
2019-05-22T08:07:17.888Z,89.70
2019-05-22T08:09:46.405Z,89.50
2019-05-22T08:12:15.566Z,88.40
2019-05-22T08:14:44.126Z,88.40
2019-05-22T08:17:12.542Z,88.70
2019-05-22T08:19:41.033Z,87.40
2019-05-22T08:22:09.494Z,87.30
2019-05-22T08:24:38.039Z,86.00
2019-05-22T08:27:07.166Z,85.70
2019-05-22T08:29:35.686Z,86.30
2019-05-22T08:32:05.217Z,85.90
2019-05-22T08:34:33.905Z,86.60
2019-05-22T08:37:02.399Z,85.00
2019-05-22T08:39:30.846Z,85.20
2019-05-22T08:41:59.340Z,84.00
2019-05-22T08:44:27.785Z,84.20
2019-05-22T08:46:56.829Z,82.90
2019-05-22T08:49:25.769Z,82.80
2019-05-22T08:51:54.324Z,80.80
2019-05-22T08:54:22.832Z,78.80
2019-05-22T08:56:51.559Z,80.00
2019-05-22T08:59:20.365Z,80.40
2019-05-22T09:01:49.769Z,77.60
2019-05-22T09:04:18.201Z,75.20
2019-05-22T09:06:46.714Z,74.00
2019-05-22T09:09:15.774Z,73.90
2019-05-22T09:11:44.265Z,73.80
2019-05-22T09:14:12.758Z,73.00
2019-05-22T09:16:41.203Z,71.20
2019-05-22T09:19:09.674Z,71.00
2019-05-22T09:21:40.663Z,72.30
2019-05-22T09:24:12.809Z,72.30
2019-05-22T09:26:42.270Z,72.30
2019-05-22T09:29:10.744Z,74.20
2019-05-22T09:31:39.196Z,75.30
2019-05-22T09:34:07.709Z,76.80
2019-05-22T09:36:36.323Z,77.20
2019-05-22T09:39:07.242Z,78.60
2019-05-22T09:41:36.201Z,78.80
2019-05-22T09:44:04.821Z,77.70
2019-05-22T09:46:33.489Z,76.10
2019-05-22T09:49:03.384Z,74.70
2019-05-22T09:51:32.928Z,73.30
2019-05-22T09:54:02.215Z,71.00
2019-05-22T09:56:31.030Z,70.60
2019-05-22T09:58:59.894Z,68.70
2019-05-22T10:01:28.353Z,69.10
2019-05-22T10:03:56.990Z,67.70
2019-05-22T10:06:25.460Z,63.90
2019-05-22T10:08:53.876Z,61.60
2019-05-22T10:11:22.373Z,66.10
2019-05-22T10:13:50.957Z,68.10
2019-05-22T10:16:19.556Z,69.10
2019-05-22T10:18:52.295Z,70.10
2019-05-22T10:21:18.853Z,71.80
2019-05-22T10:23:47.829Z,72.70
2019-05-22T10:26:16.395Z,69.60
2019-05-22T10:28:45.247Z,67.80
2019-05-22T10:31:16.518Z,70.20
2019-05-22T10:33:44.328Z,71.30
2019-05-22T10:36:13.146Z,70.60
2019-05-22T10:38:41.619Z,71.20
2019-05-22T10:41:10.877Z,73.50
2019-05-22T10:43:39.344Z,77.80
2019-05-22T10:46:08.760Z,77.30
2019-05-22T10:48:40.105Z,77.80
2019-05-22T10:51:07.496Z,77.10
2019-05-22T10:53:37.081Z,75.60
2019-05-22T10:56:06.030Z,76.20
2019-05-22T10:58:34.617Z,75.50
2019-05-22T11:01:03.254Z,73.00
2019-05-22T11:03:32.613Z,71.20
2019-05-22T11:06:07.307Z,69.90
2019-05-22T11:08:34.328Z,69.80
2019-05-22T11:11:01.737Z,68.60
2019-05-22T11:13:34.035Z,68.90
2019-05-22T11:16:00.481Z,68.10
2019-05-22T11:18:29.000Z,65.20
2019-05-22T11:20:57.451Z,66.40
2019-05-22T11:23:26.481Z,66.10
2019-05-22T11:25:55.019Z,63.90
2019-05-22T11:28:23.493Z,66.50
2019-05-22T11:30:52.209Z,67.20
2019-05-22T11:33:20.967Z,68.70
2019-05-22T11:35:49.880Z,69.10
2019-05-22T11:38:18.333Z,68.90
2019-05-22T11:40:46.822Z,67.50
2019-05-22T11:43:15.543Z,69.50
2019-05-22T11:45:45.383Z,70.50
2019-05-22T11:48:14.883Z,71.90
2019-05-22T11:50:44.209Z,74.70
2019-05-22T11:53:13.549Z,74.60
2019-05-22T11:55:45.638Z,75.90
2019-05-22T11:58:12.282Z,73.60
2019-05-22T12:00:40.801Z,75.40
2019-05-22T12:03:09.265Z,76.20
2019-05-22T12:05:38.125Z,73.90
2019-05-22T12:08:06.642Z,74.40
2019-05-22T12:10:35.665Z,75.80
2019-05-22T12:13:04.751Z,75.30
2019-05-22T12:15:33.773Z,75.10
2019-05-22T12:18:02.494Z,74.30
2019-05-22T12:20:31.872Z,74.00
2019-05-22T12:23:00.317Z,74.20
2019-05-22T12:25:28.890Z,74.70
2019-05-22T12:27:57.409Z,76.40
2019-05-22T12:30:25.997Z,76.90
2019-05-22T12:32:55.465Z,76.40
2019-05-22T12:35:23.958Z,75.70
2019-05-22T12:37:52.477Z,75.00
2019-05-22T12:40:21.058Z,74.80
2019-05-22T12:42:49.949Z,74.10
2019-05-22T12:45:23.574Z,74.40
2019-05-22T12:47:52.025Z,74.50
2019-05-22T12:50:20.529Z,72.70
2019-05-22T12:52:49.139Z,72.60
2019-05-22T12:55:18.608Z,72.40
2019-05-22T12:57:48.034Z,71.90
2019-05-22T13:00:17.521Z,69.70
2019-05-22T13:02:46.440Z,69.20
2019-05-22T13:05:15.027Z,69.60
2019-05-22T13:07:43.501Z,67.60
2019-05-22T13:10:11.996Z,66.80
2019-05-22T13:12:40.513Z,69.30
2019-05-22T13:15:10.831Z,68.20
2019-05-22T13:17:39.674Z,71.10
2019-05-22T13:20:08.276Z,72.10
2019-05-22T13:22:37.694Z,72.80
2019-05-22T13:25:07.453Z,74.30
2019-05-22T13:27:36.446Z,73.60
2019-05-22T13:30:08.235Z,73.20
2019-05-22T13:32:36.795Z,73.40
2019-05-22T13:35:07.849Z,71.70
2019-05-22T13:37:36.905Z,71.00
2019-05-22T13:40:06.364Z,68.70
2019-05-22T13:42:34.857Z,70.70
2019-05-22T13:45:05.147Z,70.00
2019-05-22T13:47:34.005Z,67.30
2019-05-22T13:50:02.617Z,68.60
2019-05-22T13:52:31.281Z,68.70
2019-05-22T13:55:00.404Z,66.90
2019-05-22T13:57:29.113Z,66.10
2019-05-22T13:59:57.593Z,61.90
2019-05-22T14:02:27.251Z,63.70
2019-05-22T14:04:56.106Z,63.30
2019-05-22T14:07:24.545Z,65.60
2019-05-22T14:09:53.045Z,66.20
2019-05-22T14:12:22.409Z,69.20
2019-05-22T14:14:51.217Z,67.60
2019-05-22T14:17:19.705Z,69.20
2019-05-22T14:19:48.429Z,68.10
2019-05-22T14:22:16.979Z,70.70
2019-05-22T14:24:45.489Z,68.20
2019-05-22T14:27:13.938Z,71.00
2019-05-22T14:29:42.421Z,71.10
2019-05-22T14:32:11.862Z,71.00
2019-05-22T14:34:40.304Z,72.10
2019-05-22T14:37:09.130Z,72.70
2019-05-22T14:39:37.957Z,74.50
2019-05-22T14:42:06.477Z,73.40
2019-05-22T14:44:34.957Z,69.80
2019-05-22T14:47:13.246Z,71.50
2019-05-22T14:49:33.613Z,70.10
2019-05-22T14:52:02.333Z,69.00
2019-05-22T14:54:30.829Z,67.20
2019-05-22T14:56:59.281Z,64.70
2019-05-22T14:59:27.843Z,66.10
2019-05-22T15:01:56.418Z,66.60
2019-05-22T15:04:25.406Z,66.80
2019-05-22T15:06:54.006Z,66.80
2019-05-22T15:09:22.489Z,64.90
2019-05-22T15:11:51.510Z,64.90
2019-05-22T15:14:21.008Z,65.30
2019-05-22T15:16:49.480Z,63.10
2019-05-22T15:19:18.270Z,62.20
2019-05-22T15:21:46.728Z,57.80
2019-05-22T15:24:15.293Z,57.50
2019-05-22T15:26:43.734Z,56.80
2019-05-22T15:29:12.181Z,58.40
2019-05-22T15:31:40.683Z,58.20
2019-05-22T15:34:10.390Z,57.30
2019-05-22T15:36:39.763Z,60.10
2019-05-22T15:39:10.913Z,59.90
2019-05-22T15:41:39.474Z,58.10
2019-05-22T15:44:08.794Z,57.60
2019-05-22T15:46:37.358Z,57.80
2019-05-22T15:49:05.929Z,58.20
2019-05-22T15:51:34.531Z,53.00
2019-05-22T15:54:05.681Z,56.80
2019-05-22T15:56:34.500Z,55.60
2019-05-22T15:59:02.986Z,56.70
2019-05-22T16:01:32.446Z,56.60
2019-05-22T16:04:01.266Z,55.60
2019-05-22T16:06:29.977Z,56.60
2019-05-22T16:08:58.655Z,55.30
2019-05-22T16:11:27.663Z,54.70
2019-05-22T16:13:56.929Z,55.60
2019-05-22T16:16:26.093Z,57.30
2019-05-22T16:18:54.905Z,59.30
2019-05-22T16:21:23.354Z,58.40
2019-05-22T16:23:51.874Z,59.10
2019-05-22T16:26:20.869Z,60.00
2019-05-22T16:28:49.320Z,58.30
2019-05-22T16:31:19.549Z,60.10
2019-05-22T16:33:48.073Z,59.00
2019-05-22T16:36:17.486Z,58.20
2019-05-22T16:38:46.484Z,58.50
2019-05-22T16:41:15.247Z,56.10
2019-05-22T16:43:49.345Z,55.60
2019-05-22T16:46:14.213Z,57.20
2019-05-22T16:48:43.268Z,54.80
2019-05-22T16:51:12.838Z,56.30
2019-05-22T16:53:42.033Z,57.00
2019-05-22T16:56:10.582Z,56.90
2019-05-22T16:58:39.037Z,59.00
2019-05-22T17:01:07.894Z,61.00
2019-05-22T17:03:36.406Z,59.60
2019-05-22T17:06:05.005Z,58.80
2019-05-22T17:08:33.877Z,60.00
2019-05-22T17:11:02.591Z,58.50
2019-05-22T17:13:32.570Z,57.10
2019-05-22T17:16:01.660Z,54.30
2019-05-22T17:18:45.853Z,51.40
2019-05-22T17:21:01.520Z,50.50
2019-05-22T17:23:30.033Z,47.30
2019-05-22T17:25:58.819Z,47.10
2019-05-22T17:28:27.842Z,46.40
2019-05-22T17:30:56.357Z,47.20
2019-05-22T17:33:25.333Z,49.90
2019-05-22T17:35:54.046Z,48.90
2019-05-22T17:38:23.237Z,53.00
2019-05-22T17:40:52.262Z,53.30
2019-05-22T17:43:20.940Z,54.60
2019-05-22T17:45:49.998Z,54.80
2019-05-22T17:48:19.205Z,54.40
2019-05-22T17:50:47.689Z,55.90
2019-05-22T17:53:18.038Z,57.80
2019-05-22T17:55:48.276Z,57.30
2019-05-22T17:58:16.956Z,57.00
2019-05-22T18:00:47.036Z,58.60
2019-05-22T18:03:15.629Z,59.10
2019-05-22T18:05:47.959Z,57.90
2019-05-22T18:08:16.982Z,56.00
2019-05-22T18:10:47.715Z,56.90
2019-05-22T18:13:16.657Z,57.20
2019-05-22T18:15:46.070Z,58.20
2019-05-22T18:18:14.946Z,59.40
2019-05-22T18:20:44.333Z,58.90
2019-05-22T18:23:13.477Z,58.60
2019-05-22T18:25:43.417Z,58.30
2019-05-22T18:28:11.861Z,58.20
2019-05-22T18:30:42.312Z,58.70
2019-05-22T18:33:11.929Z,59.60
2019-05-22T18:35:40.440Z,59.50
2019-05-22T18:38:08.938Z,60.60
2019-05-22T18:40:37.414Z,62.20
2019-05-22T18:43:05.977Z,64.00
2019-05-22T18:45:35.303Z,63.40
2019-05-22T18:48:03.852Z,65.60
2019-05-22T18:50:33.085Z,65.80
2019-05-22T18:53:01.577Z,66.40
2019-05-22T18:55:30.025Z,66.90
2019-05-22T18:57:58.608Z,68.60
2019-05-22T19:00:28.742Z,67.70
2019-05-22T19:02:57.754Z,68.30
2019-05-22T19:05:27.450Z,69.30
2019-05-22T19:07:56.003Z,70.00
2019-05-22T19:10:24.525Z,70.20
2019-05-22T19:12:53.037Z,70.50
2019-05-22T19:15:21.632Z,70.90
2019-05-22T19:17:50.578Z,72.10
2019-05-22T19:20:19.028Z,72.60
2019-05-22T19:22:59.084Z,73.00
2019-05-22T19:25:17.698Z,73.40
2019-05-22T19:27:46.140Z,73.20
2019-05-22T19:30:16.391Z,74.40
2019-05-22T19:32:45.010Z,74.60
2019-05-22T19:35:13.442Z,74.70
2019-05-22T19:37:42.017Z,75.40
2019-05-22T19:40:12.169Z,75.20
2019-05-22T19:42:41.077Z,76.10
2019-05-22T19:45:11.208Z,75.90
2019-05-22T19:47:43.024Z,76.20
2019-05-22T19:50:22.761Z,77.00
2019-05-22T19:52:42.617Z,77.30
2019-05-22T19:55:12.701Z,77.80
2019-05-22T19:57:41.772Z,77.60
2019-05-22T20:00:12.359Z,77.70
2019-05-22T20:02:41.590Z,78.10
2019-05-22T20:05:10.411Z,78.50
2019-05-22T20:07:39.301Z,79.30
2019-05-22T20:10:09.220Z,79.60
2019-05-22T20:12:38.230Z,79.60
2019-05-22T20:15:09.929Z,80.20
2019-05-22T20:17:38.656Z,80.40
2019-05-22T20:20:11.897Z,80.40
2019-05-22T20:22:41.088Z,80.00
2019-05-22T20:25:10.124Z,79.90
2019-05-22T20:27:39.054Z,79.90
2019-05-22T20:30:07.939Z,79.80
2019-05-22T20:32:38.246Z,80.30
2019-05-22T20:35:07.316Z,80.30
2019-05-22T20:37:35.752Z,80.40
2019-05-22T20:40:06.801Z,80.50
2019-05-22T20:42:35.976Z,80.50
2019-05-22T20:45:07.181Z,80.80
2019-05-22T20:47:37.630Z,81.20
2019-05-22T20:50:08.569Z,81.40
2019-05-22T20:52:37.390Z,80.50
2019-05-22T20:55:07.341Z,81.00
2019-05-22T20:57:35.918Z,80.90
2019-05-22T21:00:08.237Z,80.70
2019-05-22T21:02:37.379Z,81.70
2019-05-22T21:05:09.197Z,81.20
2019-05-22T21:07:39.858Z,81.70
2019-05-22T21:10:09.209Z,81.70
2019-05-22T21:12:37.954Z,81.70
2019-05-22T21:15:06.917Z,81.70
2019-05-22T21:17:37.165Z,81.40
2019-05-22T21:20:10.373Z,81.70
2019-05-22T21:22:39.254Z,82.00
2019-05-22T21:25:07.914Z,81.10
2019-05-22T21:27:38.063Z,80.50
2019-05-22T21:30:10.536Z,80.70
2019-05-22T21:32:39.457Z,80.00
2019-05-22T21:35:08.232Z,80.50
2019-05-22T21:37:37.413Z,80.80
2019-05-22T21:40:06.574Z,80.80
2019-05-22T21:42:36.454Z,81.40
2019-05-22T21:45:07.417Z,81.00
2019-05-22T21:47:36.461Z,81.30
2019-05-22T21:50:08.285Z,80.80
2019-05-22T21:52:36.847Z,82.20
2019-05-22T21:55:07.906Z,81.40
2019-05-22T21:57:37.965Z,81.40
2019-05-22T22:00:13.093Z,81.10
2019-05-22T22:02:43.877Z,81.20
2019-05-22T22:05:12.797Z,81.30
2019-05-22T22:07:42.097Z,81.20
2019-05-22T22:10:11.820Z,81.50
2019-05-22T22:12:41.826Z,81.90
2019-05-22T22:15:10.788Z,81.00
2019-05-22T22:17:39.605Z,81.40
2019-05-22T22:20:08.381Z,81.70
2019-05-22T22:22:36.932Z,81.90
2019-05-22T22:25:06.922Z,81.70
2019-05-22T22:27:36.231Z,82.20
2019-05-22T22:30:11.765Z,81.80
2019-05-22T22:32:41.025Z,82.10
2019-05-22T22:35:10.576Z,81.90
2019-05-22T22:37:39.637Z,83.40
2019-05-22T22:40:08.896Z,82.70
2019-05-22T22:42:38.034Z,82.10
2019-05-22T22:45:09.504Z,82.60
2019-05-22T22:47:39.589Z,82.90
2019-05-22T22:50:08.092Z,82.90
2019-05-22T22:52:37.641Z,83.40
2019-05-22T22:55:08.881Z,83.30
2019-05-22T22:57:38.513Z,83.50
2019-05-22T23:00:08.964Z,83.40
2019-05-22T23:02:39.159Z,82.60
2019-05-22T23:05:07.640Z,83.60
2019-05-22T23:07:36.701Z,83.80
2019-05-22T23:10:09.654Z,83.30
2019-05-22T23:12:39.573Z,82.90
2019-05-22T23:15:09.870Z,83.80
2019-05-22T23:17:38.853Z,83.00
2019-05-22T23:20:08.085Z,82.90
2019-05-22T23:22:35.680Z,82.70
2019-05-22T23:25:04.278Z,83.10
2019-05-22T23:27:33.217Z,83.60
2019-05-22T23:30:02.982Z,83.60
2019-05-22T23:32:31.769Z,83.50
2019-05-22T23:35:01.305Z,83.10
2019-05-22T23:37:29.965Z,83.80
2019-05-22T23:39:59.428Z,82.90
2019-05-22T23:42:31.495Z,83.10
2019-05-22T23:45:00.721Z,83.70
2019-05-22T23:47:29.694Z,83.00
2019-05-22T23:49:59.047Z,83.10
2019-05-22T23:52:27.955Z,83.70
2019-05-22T23:54:57.316Z,83.50
2019-05-22T23:57:28.609Z,83.00
2019-05-22T23:59:58.933Z,82.90
